Time;durP1;ratioP1;P1;durP2;ratioP2;P2;SDS_P1;SDS_P2;PMS_P1;PMS_P2;Temp;Humidity;BMP_temperature;BMP_pressure;BME280_temperature;BME280_humidity;BME280_pressure;Samples;Min_cycle;Max_cycle;Signal;HPM_P1;HPM_P2
2022/06/08 00:00:25;;;;;;;7.03;4.28;;;11.10;99.90;;;;;;5035464;28;20047;-68
2022/06/08 00:03:16;;;;;;;13.07;5.70;;;11.20;99.90;;;;;;5034225;28;20033;-68
2022/06/08 00:05:42;;;;;;;9.43;5.22;;;11.20;99.90;;;;;;5054228;28;20457;-68
2022/06/08 00:08:08;;;;;;;13.07;5.15;;;;;;;;;;5054132;28;20120;-68
2022/06/08 00:10:34;;;;;;;11.85;5.30;;;11.20;99.90;;;;;;5035126;28;20040;-68
2022/06/08 00:12:59;;;;;;;6.95;4.97;;;11.10;99.90;;;;;;5035897;28;20045;-68
2022/06/08 00:15:26;;;;;;;8.00;5.18;;;;;;;;;;5035837;28;20041;-68
2022/06/08 00:17:52;;;;;;;11.77;6.50;;;;;;;;;;5053650;28;20051;-68
2022/06/08 00:20:18;;;;;;;10.02;5.63;;;11.10;99.90;;;;;;5034892;28;20076;-69
2022/06/08 00:22:44;;;;;;;9.23;5.85;;;;;;;;;;5053753;28;20068;-68
2022/06/08 00:25:10;;;;;;;6.63;4.90;;;;;;;;;;5053701;28;20037;-70
2022/06/08 00:27:36;;;;;;;9.43;5.55;;;;;;;;;;5053739;28;20043;-68
2022/06/08 00:30:04;;;;;;;12.23;5.00;;;11.20;99.90;;;;;;5034833;28;20099;-68
2022/06/08 00:32:30;;;;;;;11.57;5.57;;;;;;;;;;5053166;28;20490;-71
2022/06/08 00:34:56;;;;;;;7.95;5.43;;;;;;;;;;5035532;28;20052;-68
2022/06/08 00:37:23;;;;;;;11.23;6.22;;;;;;;;;;5053575;28;20037;-68
2022/06/08 00:39:49;;;;;;;11.27;6.22;;;;;;;;;;5052480;28;20057;-68
2022/06/08 00:42:16;;;;;;;10.45;5.28;;;;;;;;;;5019055;28;20152;-68
2022/06/08 00:44:52;;;;;;;7.43;5.65;;;11.10;99.90;;;;;;5035319;28;20124;-68
2022/06/08 00:47:29;;;;;;;9.32;6.25;;;10.80;99.90;;;;;;5053184;28;20113;-68
2022/06/08 00:49:59;;;;;;;8.65;5.32;;;10.90;99.90;;;;;;5034596;28;20040;-69
2022/06/08 00:52:28;;;;;;;8.50;5.93;;;10.90;99.90;;;;;;5035857;28;20148;-68
2022/06/08 00:55:00;;;;;;;9.20;5.50;;;11.10;99.90;;;;;;5053241;28;20044;-68
2022/06/08 00:57:38;;;;;;;9.35;5.57;;;11.10;99.90;;;;;;5053117;28;20048;-69
2022/06/08 01:00:07;;;;;;;9.75;5.60;;;10.90;99.90;;;;;;5051770;28;20116;-68
2022/06/08 01:02:33;;;;;;;7.63;5.65;;;;;;;;;;5053156;28;20044;-69
2022/06/08 01:05:23;;;;;;;9.32;5.45;;;10.90;99.90;;;;;;5034953;28;20455;-70
2022/06/08 01:07:51;;;;;;;10.27;5.72;;;10.90;99.90;;;;;;5052830;28;20051;-68
2022/06/08 01:10:21;;;;;;;8.05;5.65;;;11.10;99.90;;;;;;5052191;28;20033;-68
2022/06/08 01:12:47;;;;;;;10.15;5.63;;;10.80;99.90;;;;;;5052807;28;20075;-68
2022/06/08 01:15:16;;;;;;;11.15;5.90;;;10.70;99.90;;;;;;5018298;28;20048;-69
2022/06/08 01:17:42;;;;;;;11.82;6.68;;;;;;;;;;5052596;28;20080;-71
2022/06/08 01:20:12;;;;;;;8.75;5.65;;;10.90;99.90;;;;;;5051751;28;20036;-71
2022/06/08 01:22:38;;;;;;;7.25;5.40;;;10.70;99.90;;;;;;5052390;28;20037;-71
2022/06/08 01:25:07;;;;;;;7.97;5.97;;;11.00;99.90;;;;;;5035194;28;20047;-71
2022/06/08 01:27:50;;;;;;;9.73;5.75;;;11.00;99.90;;;;;;5034675;28;20037;-70
2022/06/08 01:30:25;;;;;;;11.43;6.15;;;11.10;99.90;;;;;;5033698;28;20075;-68
2022/06/08 01:33:06;;;;;;;8.82;5.85;;;11.10;99.90;;;;;;5018202;28;20491;-70
2022/06/08 01:35:55;;;;;;;9.63;6.18;;;11.10;99.90;;;;;;5052551;28;20073;-68
2022/06/08 01:38:38;;;;;;;11.45;5.82;;;11.10;99.90;;;;;;5067524;28;20036;-68
2022/06/08 01:41:41;;;;;;;14.68;6.95;;;11.20;99.90;;;;;;5059307;22;20045;-69
2022/06/08 01:44:34;;;;;;;9.52;6.38;;;11.30;99.90;;;;;;5034433;28;20045;-69
2022/06/08 01:47:12;;;;;;;13.70;7.28;;;11.40;99.90;;;;;;5052468;28;20061;-70
2022/06/08 01:50:14;;;;;;;12.23;6.82;;;11.50;99.90;;;;;;5033517;28;20041;-69
2022/06/08 01:53:02;;;;;;;10.80;7.03;;;11.20;99.90;;;;;;5051656;28;20052;-69
2022/06/08 01:55:56;;;;;;;10.77;6.25;;;11.30;99.90;;;;;;5052378;28;20064;-69
2022/06/08 01:58:39;;;;;;;11.02;6.68;;;11.30;99.90;;;;;;5018066;28;20136;-69
2022/06/08 02:01:28;;;;;;;14.00;5.85;;;11.40;99.90;;;;;;5051251;28;20494;-69
2022/06/08 02:04:14;;;;;;;11.90;7.05;;;11.10;99.90;;;;;;5034286;28;20044;-69
2022/06/08 02:07:12;;;;;;;12.32;7.05;;;11.30;99.90;;;;;;5017923;28;20045;-69
2022/06/08 02:09:41;;;;;;;10.20;6.75;;;11.30;99.90;;;;;;5037854;28;20041;-69
2022/06/08 02:12:10;;;;;;;16.63;7.65;;;11.10;99.90;;;;;;5033482;28;20041;-69
2022/06/08 02:14:58;;;;;;;9.73;6.30;;;11.30;99.90;;;;;;5051752;28;20041;-68
2022/06/08 02:17:37;;;;;;;11.27;6.97;;;11.00;99.90;;;;;;5052351;28;20033;-69
2022/06/08 02:20:11;;;;;;;13.27;7.07;;;11.20;99.90;;;;;;5033582;28;20064;-69
2022/06/08 02:22:43;;;;;;;9.75;7.30;;;11.30;99.90;;;;;;5017502;28;20422;-69
2022/06/08 02:25:23;;;;;;;12.95;7.63;;;11.10;99.90;;;;;;5034314;28;20040;-69
2022/06/08 02:27:58;;;;;;;13.02;8.10;;;11.30;99.90;;;;;;5034345;28;20033;-69
2022/06/08 02:30:26;;;;;;;13.30;8.18;;;11.10;99.90;;;;;;5050877;28;20048;-69
2022/06/08 02:35:44;;;;;;;13.45;7.95;;;11.20;99.90;;;;;;5051604;28;20037;-69
2022/06/08 02:38:11;;;;;;;;;;;12.20;99.90;;;;;;5034550;28;20033;-68
2022/06/08 02:40:42;;;;;;;16.20;9.30;;;11.30;99.90;;;;;;5032753;28;19917;-69
2022/06/08 02:43:16;;;;;;;14.82;9.02;;;11.20;99.90;;;;;;5033876;28;20360;-69
2022/06/08 02:45:44;;;;;;;13.82;8.85;;;11.20;99.90;;;;;;5051465;28;20131;-69
2022/06/08 02:48:13;;;;;;;12.85;9.40;;;11.00;99.90;;;;;;5051462;28;20566;-69
2022/06/08 02:50:50;;;;;;;12.23;9.05;;;11.30;99.90;;;;;;5032943;28;20411;-69
2022/06/08 02:53:22;;;;;;;12.82;9.27;;;11.10;99.90;;;;;;5051530;28;20056;-69
2022/06/08 02:56:13;;;;;;;14.27;8.93;;;11.10;99.90;;;;;;5033433;28;20094;-68
2022/06/08 02:58:52;;;;;;;15.02;9.48;;;11.20;99.90;;;;;;5051609;28;20041;-68
2022/06/08 03:01:42;;;;;;;18.80;10.88;;;11.00;99.90;;;;;;5051140;28;20399;-69
2022/06/08 03:04:18;;;;;;;15.23;9.25;;;11.20;99.90;;;;;;5051361;28;20175;-69
2022/06/08 03:06:52;;;;;;;17.38;10.68;;;11.10;99.90;;;;;;5051228;28;20048;-70
2022/06/08 03:09:18;;;;;;;14.88;10.48;;;11.20;99.90;;;;;;5050815;28;20037;-70
2022/06/08 03:11:51;;;;;;;19.02;9.48;;;11.20;99.90;;;;;;5033380;28;20040;-69
2022/06/08 03:14:18;;;;;;;18.35;10.95;;;11.10;99.90;;;;;;5051339;28;20094;-69
2022/06/08 03:17:05;;;;;;;14.65;10.30;;;11.10;99.90;;;;;;5016976;28;20041;-69
2022/06/08 03:19:34;;;;;;;16.90;11.02;;;11.20;99.90;;;;;;5050601;28;20033;-69
2022/06/08 03:22:00;;;;;;;15.10;10.55;;;11.20;99.90;;;;;;5033303;28;20054;-69
2022/06/08 03:24:26;;;;;;;18.30;10.63;;;11.20;99.90;;;;;;5018906;28;20041;-69
2022/06/08 03:26:59;;;;;;;16.35;10.05;;;11.20;99.90;;;;;;5020572;28;20070;-69
2022/06/08 03:29:26;;;;;;;11.73;9.45;;;11.20;99.90;;;;;;5054128;28;20437;-68
2022/06/08 03:31:52;;;;;;;17.85;10.50;;;11.10;99.90;;;;;;5054763;28;20049;-69
2022/06/08 03:34:18;;;;;;;17.17;10.45;;;11.20;99.90;;;;;;5055007;28;20041;-69
2022/06/08 03:36:44;;;;;;;14.98;10.13;;;;;;;;;;5037166;28;20410;-69
2022/06/08 03:39:11;;;;;;;19.63;11.95;;;11.50;99.90;;;;;;5053999;28;20048;-68
2022/06/08 03:41:36;;;;;;;16.50;9.40;;;11.50;99.90;;;;;;5037020;28;20442;-69
2022/06/08 03:44:03;;;;;;;17.15;11.98;;;11.50;99.90;;;;;;5036787;28;20041;-69
2022/06/08 03:46:33;;;;;;;19.92;12.07;;;11.30;99.90;;;;;;5036750;28;20036;-68
2022/06/08 03:48:58;;;;;;;16.88;10.68;;;11.60;99.90;;;;;;5036221;28;20041;-69
2022/06/08 03:51:25;;;;;;;14.40;9.57;;;11.60;99.90;;;;;;5054423;28;20405;-70
2022/06/08 03:54:04;;;;;;;19.27;11.43;;;11.60;99.90;;;;;;5036808;28;20045;-69
2022/06/08 03:56:31;;;;;;;13.98;10.88;;;11.60;99.90;;;;;;5036781;28;20032;-69
2022/06/08 03:58:58;;;;;;;15.05;9.40;;;11.70;99.90;;;;;;5019744;28;20045;-69
2022/06/08 04:01:24;;;;;;;15.18;10.77;;;11.80;99.90;;;;;;5036252;28;20048;-69
2022/06/08 04:03:52;;;;;;;16.90;11.80;;;;;;;;;;5036661;28;20072;-69
2022/06/08 04:06:19;;;;;;;17.42;10.13;;;11.90;99.90;;;;;;5020894;28;20439;-69
2022/06/08 04:08:45;;;;;;;17.10;10.57;;;;;;;;;;5056962;28;20065;-69
2022/06/08 04:11:11;;;;;;;19.75;12.13;;;12.10;99.90;;;;;;5057152;28;20036;-69
2022/06/08 04:13:38;;;;;;;14.68;11.60;;;;;;;;;;5040240;28;20080;-69
2022/06/08 04:16:04;;;;;;;16.50;9.73;;;;;;;;;;5022021;28;20052;-70
2022/06/08 04:18:30;;;;;;;18.05;12.20;;;12.30;99.90;;;;;;5054319;28;20040;-70
2022/06/08 04:20:57;;;;;;;16.33;10.75;;;12.10;99.90;;;;;;5035384;28;20560;-69
2022/06/08 04:23:25;;;;;;;21.75;11.82;;;12.30;99.90;;;;;;5019516;28;20041;-69
2022/06/08 04:25:52;;;;;;;17.85;12.60;;;12.30;99.90;;;;;;5035804;28;20073;-69
2022/06/08 04:28:18;;;;;;;16.83;11.02;;;12.20;99.90;;;;;;5053951;28;20044;-69
2022/06/08 04:30:45;;;;;;;17.15;10.80;;;12.30;99.90;;;;;;5053182;28;20037;-68
2022/06/08 04:33:11;;;;;;;18.33;12.15;;;12.30;99.90;;;;;;5053888;28;20070;-70
2022/06/08 04:35:38;;;;;;;23.98;12.95;;;12.50;99.90;;;;;;5052956;28;20094;-69
2022/06/08 04:38:05;;;;;;;20.05;10.98;;;12.60;99.90;;;;;;5053646;28;20067;-69
2022/06/08 04:40:31;;;;;;;14.57;10.18;;;12.70;99.90;;;;;;5052675;28;20041;-69
2022/06/08 04:42:57;;;;;;;15.65;11.55;;;;;;;;;;5019255;28;20556;-69
2022/06/08 04:45:23;;;;;;;15.65;10.98;;;;;;;;;;5053550;28;20510;-69
2022/06/08 04:47:49;;;;;;;19.75;13.23;;;;;;;;;;5053457;28;20076;-69
2022/06/08 04:50:15;;;;;;;17.70;11.75;;;;;;;;;;5034765;28;20052;-69
2022/06/08 04:52:41;;;;;;;20.67;13.90;;;12.90;99.90;;;;;;5053374;28;20037;-69
2022/06/08 04:55:09;;;;;;;20.20;13.00;;;12.90;99.90;;;;;;5035293;28;20032;-68
2022/06/08 04:57:37;;;;;;;16.02;11.48;;;13.10;99.90;;;;;;5018741;28;20048;-69
2022/06/08 05:00:09;;;;;;;23.38;13.23;;;12.80;99.90;;;;;;5034536;28;20055;-69
2022/06/08 05:02:44;;;;;;;23.38;15.40;;;13.00;99.90;;;;;;5053563;28;20037;-69
2022/06/08 05:05:16;;;;;;;21.13;14.63;;;13.00;99.90;;;;;;5035315;28;20179;-67
2022/06/08 05:07:42;;;;;;;21.48;14.38;;;13.00;99.90;;;;;;5035227;28;20071;-69
2022/06/08 05:10:08;;;;;;;22.23;13.15;;;13.30;99.90;;;;;;5034309;28;20041;-69
2022/06/08 05:12:36;;;;;;;16.85;12.48;;;;;;;;;;5035033;28;20052;-69
2022/06/08 05:15:12;;;;;;;18.13;13.30;;;13.00;99.90;;;;;;5035301;28;20052;-69
2022/06/08 05:17:38;;;;;;;22.75;14.98;;;;;;;;;;5035030;28;20075;-69
2022/06/08 05:20:05;;;;;;;21.48;12.88;;;13.30;99.90;;;;;;5033995;28;20076;-69
2022/06/08 05:22:31;;;;;;;22.25;14.40;;;13.40;99.90;;;;;;5035204;28;20470;-69
2022/06/08 05:24:58;;;;;;;22.42;14.07;;;;;;;;;;5052789;28;20573;-69
2022/06/08 05:27:29;;;;;;;28.98;14.93;;;;;;;;;;5033058;28;20037;-70
2022/06/08 05:29:55;;;;;;;20.65;12.75;;;13.80;99.90;;;;;;5033731;28;20041;-69
2022/06/08 05:32:21;;;;;;;29.10;16.60;;;13.90;99.90;;;;;;5029173;28;20033;-69
2022/06/08 05:34:47;;;;;;;25.33;14.75;;;;;;;;;;5030343;28;20167;-69
2022/06/08 05:37:13;;;;;;;21.45;14.00;;;;;;;;;;5048594;28;20037;-69
2022/06/08 05:39:39;;;;;;;23.75;14.75;;;;;;;;;;5029634;28;20068;-68
2022/06/08 05:42:05;;;;;;;20.85;13.35;;;14.10;99.90;;;;;;5047468;28;20073;-69
2022/06/08 05:44:32;;;;;;;21.65;13.88;;;;;;;;;;5029036;28;20045;-69
2022/06/08 05:46:58;;;;;;;21.17;12.77;;;;;;;;;;5013198;28;20041;-68
2022/06/08 05:49:24;;;;;;;16.98;11.50;;;;;;;;;;5031252;28;20032;-69
2022/06/08 05:51:50;;;;;;;27.02;13.57;;;;;;;;;;4997185;28;20045;-69
2022/06/08 05:54:17;;;;;;;26.02;13.95;;;14.60;99.90;;;;;;5001804;28;20094;-68
2022/06/08 05:56:42;;;;;;;17.85;13.63;;;14.60;99.90;;;;;;5031381;28;20439;-69
2022/06/08 05:59:08;;;;;;;18.35;13.48;;;;;;;;;;5017771;28;20048;-68
2022/06/08 06:01:35;;;;;;;22.38;13.35;;;14.90;99.90;;;;;;5011481;28;20053;-69
2022/06/08 06:04:04;;;;;;;21.33;13.07;;;;;;;;;;5042539;28;20040;-69
2022/06/08 06:06:31;;;;;;;20.80;14.13;;;14.80;99.90;;;;;;5045998;28;20617;-68
2022/06/08 06:08:57;;;;;;;20.67;12.98;;;;;;;;;;5029148;28;20047;-69
2022/06/08 06:11:26;;;;;;;19.85;12.75;;;;;;;;;;5029615;28;20445;-69
2022/06/08 06:13:53;;;;;;;23.92;14.52;;;;;;;;;;5029867;28;20053;-69
2022/06/08 06:16:19;;;;;;;20.58;14.38;;;14.80;99.90;;;;;;5039939;28;20113;-69
2022/06/08 06:18:45;;;;;;;19.83;12.60;;;;;;;;;;5047686;28;20033;-70
2022/06/08 06:21:24;;;;;;;17.33;12.70;;;15.10;99.90;;;;;;5028904;28;20052;-67
2022/06/08 06:23:50;;;;;;;22.17;13.65;;;15.00;99.90;;;;;;5047083;28;20044;-69
2022/06/08 06:26:16;;;;;;;19.70;12.35;;;;;;;;;;5048196;28;20082;-69
2022/06/08 06:28:42;;;;;;;18.98;13.05;;;;;;;;;;5032459;28;20047;-69
2022/06/08 06:31:13;;;;;;;18.30;11.30;;;15.40;99.90;;;;;;5031889;28;20052;-69
2022/06/08 06:33:39;;;;;;;16.40;10.98;;;;;;;;;;5033809;28;20525;-69
2022/06/08 06:36:05;;;;;;;17.27;11.00;;;15.30;99.90;;;;;;5033740;28;20045;-69
2022/06/08 06:38:31;;;;;;;18.42;11.63;;;15.60;99.90;;;;;;5051491;28;20095;-69
2022/06/08 06:40:57;;;;;;;17.73;11.20;;;15.70;99.90;;;;;;5032790;28;20048;-69
2022/06/08 06:43:22;;;;;;;19.02;12.50;;;15.60;99.90;;;;;;5051450;28;20422;-69
2022/06/08 06:45:48;;;;;;;17.77;11.27;;;15.70;99.90;;;;;;5051776;28;20033;-69
2022/06/08 06:48:13;;;;;;;18.02;11.35;;;15.50;99.90;;;;;;5051704;28;20029;-69
2022/06/08 06:50:39;;;;;;;18.05;11.57;;;15.50;99.90;;;;;;5032855;28;20547;-69
2022/06/08 06:53:05;;;;;;;17.83;11.52;;;15.40;99.90;;;;;;5033570;28;20041;-69
2022/06/08 06:55:32;;;;;;;17.05;12.02;;;15.50;99.90;;;;;;5033535;28;20041;-69
2022/06/08 06:57:57;;;;;;;16.25;11.27;;;15.50;99.90;;;;;;5051290;28;20080;-69
2022/06/08 07:00:25;;;;;;;18.15;11.52;;;15.60;99.90;;;;;;5036822;28;20435;-68
2022/06/08 07:02:51;;;;;;;16.60;10.50;;;15.50;99.90;;;;;;5037761;28;20041;-69
2022/06/08 07:05:21;;;;;;;17.92;11.63;;;15.60;99.90;;;;;;5037681;28;20036;-69
2022/06/08 07:07:46;;;;;;;15.85;10.18;;;15.50;99.90;;;;;;5037623;28;20142;-69
2022/06/08 07:10:12;;;;;;;17.42;11.27;;;15.60;99.90;;;;;;5036787;28;20502;-69
2022/06/08 07:12:38;;;;;;;17.98;10.77;;;15.60;99.90;;;;;;5055247;28;20040;-69
2022/06/08 07:15:04;;;;;;;18.40;11.32;;;15.60;99.90;;;;;;5055490;28;20043;-69
2022/06/08 07:17:30;;;;;;;17.55;11.32;;;15.70;99.90;;;;;;5055362;28;20120;-69
2022/06/08 07:19:56;;;;;;;15.02;11.18;;;;;;;;;;5054451;28;20479;-70
2022/06/08 07:22:21;;;;;;;18.77;10.95;;;15.50;99.90;;;;;;5055092;28;20056;-69
2022/06/08 07:24:47;;;;;;;14.73;10.48;;;15.80;99.90;;;;;;5020620;28;20503;-69
2022/06/08 07:27:13;;;;;;;18.23;9.77;;;;;;;;;;5036948;28;20033;-69
2022/06/08 07:29:39;;;;;;;18.88;11.80;;;16.00;99.90;;;;;;5036063;28;20120;-69
2022/06/08 07:32:05;;;;;;;17.13;11.75;;;16.10;99.90;;;;;;5037325;28;20460;-70
2022/06/08 07:34:31;;;;;;;14.82;10.10;;;16.40;99.90;;;;;;5055535;28;20041;-70
2022/06/08 07:36:57;;;;;;;20.23;10.07;;;16.30;99.90;;;;;;5054887;28;20059;-70
2022/06/08 07:41:56;;;;;;;14.93;9.07;;;16.50;99.90;;;;;;5051818;28;20087;-69
2022/06/08 07:44:21;;;;;;;13.57;9.23;;;16.70;99.90;;;;;;5054926;28;20080;-69
2022/06/08 07:46:48;;;;;;;13.25;9.05;;;16.80;99.90;;;;;;5036957;28;20033;-69
2022/06/08 07:52:02;;;;;;;12.55;8.40;;;17.00;99.90;;;;;;5032598;28;20483;-69
2022/06/08 07:54:28;;;;;;;12.00;7.90;;;17.10;99.90;;;;;;5032956;28;20088;-69
2022/06/08 07:56:55;;;;;;;11.32;7.82;;;17.30;99.90;;;;;;5033231;28;20466;-69
2022/06/08 07:59:25;;;;;;;9.98;7.28;;;17.50;99.90;;;;;;5015454;28;20132;-68
2022/06/08 08:01:52;;;;;;;11.52;7.25;;;17.60;99.90;;;;;;4999509;28;20037;-69
2022/06/08 08:04:18;;;;;;;8.65;6.90;;;17.90;99.90;;;;;;5016186;28;20041;-69
2022/06/08 08:06:44;;;;;;;11.70;6.70;;;18.00;99.90;;;;;;5016530;28;20510;-69
2022/06/08 08:09:17;;;;;;;14.38;6.60;;;17.70;99.90;;;;;;5033512;28;20029;-68
2022/06/08 08:11:44;;;;;;;11.07;5.68;;;17.90;99.90;;;;;;5034142;28;20098;-68
2022/06/08 08:14:10;;;;;;;7.57;5.90;;;19.10;99.90;;;;;;5016472;28;20475;-69
2022/06/08 08:16:37;;;;;;;8.82;4.50;;;17.90;99.90;;;;;;5034056;28;20048;-69
2022/06/08 08:19:03;;;;;;;8.32;5.68;;;17.70;99.90;;;;;;5015682;28;20080;-68
2022/06/08 08:21:29;;;;;;;10.43;5.68;;;17.90;99.90;;;;;;5015766;28;20128;-69
2022/06/08 08:23:55;;;;;;;8.10;5.55;;;18.00;99.90;;;;;;5034037;28;20045;-69
2022/06/08 08:26:20;;;;;;;6.75;4.97;;;18.10;99.90;;;;;;5016205;28;20041;-69
2022/06/08 08:28:46;;;;;;;7.43;5.10;;;18.70;99.90;;;;;;5016215;28;20045;-69
2022/06/08 08:31:12;;;;;;;7.78;4.60;;;18.10;99.90;;;;;;5015227;28;20365;-69
2022/06/08 08:33:37;;;;;;;7.60;4.82;;;18.30;99.90;;;;;;5033842;28;20415;-69
2022/06/08 08:36:03;;;;;;;6.55;4.53;;;19.00;99.90;;;;;;5033637;28;20033;-69
2022/06/08 08:38:29;;;;;;;5.18;4.20;;;18.60;99.90;;;;;;5015927;28;20041;-70
2022/06/08 08:40:58;;;;;;;9.00;4.28;;;18.50;99.90;;;;;;5014690;28;20041;-69
2022/06/08 08:43:28;;;;;;;6.88;4.55;;;18.70;99.90;;;;;;5033439;28;20134;-69
2022/06/08 08:46:21;;;;;;;8.90;4.13;;;19.00;99.90;;;;;;5033606;28;20100;-69
2022/06/08 08:49:00;;;;;;;5.18;3.42;;;18.60;99.90;;;;;;5015666;28;20084;-69
2022/06/08 08:51:34;;;;;;;7.75;4.20;;;19.10;99.90;;;;;;5015191;28;20514;-69
2022/06/08 08:54:15;;;;;;;7.63;4.05;;;19.70;99.90;;;;;;5015833;28;20045;-69
2022/06/08 08:56:42;;;;;;;7.07;3.33;;;18.90;99.90;;;;;;5033049;28;20038;-69
2022/06/08 08:59:18;;;;;;;5.10;3.20;;;19.10;99.90;;;;;;4997884;28;20029;-69
2022/06/08 09:01:48;;;;;;;8.13;3.97;;;19.10;99.90;;;;;;5015079;28;20087;-70
2022/06/08 09:04:28;;;;;;;5.38;3.13;;;19.00;99.90;;;;;;5015201;28;20042;-70
2022/06/08 09:06:55;;;;;;;5.80;3.35;;;19.20;99.90;;;;;;5033508;28;20069;-70
2022/06/08 09:09:23;;;;;;;4.82;2.75;;;20.20;99.90;;;;;;5032361;28;20113;-70
2022/06/08 09:11:49;;;;;;;3.75;2.83;;;21.00;99.90;;;;;;5031547;28;20069;-70
2022/06/08 09:14:19;;;;;;;3.90;2.60;;;20.20;99.90;;;;;;5033001;28;20065;-70
2022/06/08 09:16:47;;;;;;;4.10;2.80;;;19.10;99.90;;;;;;5032419;28;20497;-69
2022/06/08 09:19:22;;;;;;;6.22;3.10;;;19.50;99.90;;;;;;5027179;28;20041;-69
2022/06/08 09:21:51;;;;;;;9.68;3.38;;;18.50;99.90;;;;;;5018837;28;20040;-70
2022/06/08 09:24:35;;;;;;;9.05;3.60;;;18.80;99.90;;;;;;4998705;28;20573;-69
2022/06/08 09:27:18;;;;;;;7.15;3.90;;;18.60;99.90;;;;;;5017569;28;20146;-69
2022/06/08 09:30:07;;;;;;;4.55;2.70;;;18.80;99.90;;;;;;5024938;28;20091;-69
2022/06/08 09:32:49;;;;;;;2.90;2.60;;;19.10;99.90;;;;;;5001758;28;20037;-69
2022/06/08 09:35:20;;;;;;;5.75;3.00;;;19.20;99.90;;;;;;5016303;28;20096;-69
2022/06/08 09:37:48;;;;;;;8.35;3.03;;;19.50;99.90;;;;;;5028868;28;20120;-70
2022/06/08 09:40:36;;;;;;;4.70;2.78;;;20.20;99.90;;;;;;5028827;28;20041;-67
2022/06/08 09:43:27;;;;;;;6.35;2.70;;;19.80;99.90;;;;;;5023606;28;20084;-67
2022/06/08 09:46:03;;;;;;;6.63;3.10;;;19.50;99.90;;;;;;5012020;28;20442;-71
2022/06/08 09:51:46;;;;;;;4.07;2.75;;;19.30;99.90;;;;;;5023940;28;20126;-71
2022/06/08 09:54:49;;;;;;;5.35;3.42;;;19.70;99.90;;;;;;5028386;28;20112;-71
2022/06/08 09:57:16;;;;;;;5.93;3.70;;;19.90;99.90;;;;;;5028858;28;20042;-71
2022/06/08 09:59:49;;;;;;;5.35;3.50;;;19.80;99.90;;;;;;5029969;28;20056;-71
2022/06/08 10:02:38;;;;;;;;;;;20.10;99.90;;;;;;5028917;28;21448;-71
2022/06/08 10:05:42;;;;;;;3.28;2.88;;;20.30;99.90;;;;;;5011336;28;19924;-72
2022/06/08 10:08:24;;;;;;;5.78;3.67;;;21.30;99.90;;;;;;4992298;28;20147;-70
2022/06/08 10:11:04;;;;;;;4.05;3.00;;;20.30;99.90;;;;;;5025574;28;20058;-70
2022/06/08 10:13:36;;;;;;;6.40;3.15;;;20.60;99.90;;;;;;5025782;28;20237;-71
2022/06/08 10:16:14;;;;;;;7.90;3.03;;;20.50;99.90;;;;;;5026102;28;20080;-69
2022/06/08 10:18:49;;;;;;;4.85;3.10;;;20.60;99.90;;;;;;5034056;28;20283;-69
2022/06/08 10:21:16;;;;;;;4.22;3.60;;;20.20;99.90;;;;;;5031473;28;20045;-70
2022/06/08 10:23:51;;;;;;;4.15;3.25;;;20.40;99.90;;;;;;5011402;28;20045;-69
2022/06/08 10:26:20;;;;;;;4.47;4.07;;;20.10;99.90;;;;;;5028505;28;20037;-71
2022/06/08 10:29:10;;;;;;;6.13;3.63;;;21.10;99.90;;;;;;5027069;28;20080;-69
2022/06/08 10:31:48;;;;;;;6.95;4.25;;;19.90;99.90;;;;;;5030162;28;20041;-71
2022/06/08 10:34:27;;;;;;;7.72;3.88;;;19.80;99.90;;;;;;5006712;28;20033;-69
2022/06/08 10:36:58;;;;;;;7.55;3.67;;;19.50;99.90;;;;;;5012192;28;20044;-69
2022/06/08 10:39:25;;;;;;;6.85;4.22;;;19.30;99.90;;;;;;5029205;28;20203;-69
2022/06/08 10:42:39;;;;;;;8.90;5.20;;;20.80;99.90;;;;;;5028967;28;20407;-69
2022/06/08 10:45:36;;;;;;;12.73;7.10;;;18.60;99.90;;;;;;5019561;28;20041;-68
2022/06/08 10:48:27;;;;;;;12.07;6.70;;;18.00;99.90;;;;;;4998853;28;20057;-67
2022/06/08 10:51:10;;;;;;;9.38;5.88;;;18.00;99.90;;;;;;5007457;28;20496;-68
2022/06/08 10:56:48;;;;;;;7.93;6.20;;;19.20;99.90;;;;;;5025815;28;20132;-70
2022/06/08 10:59:27;;;;;;;9.65;5.68;;;18.70;99.90;;;;;;5009204;28;20034;-70
2022/06/08 11:02:21;;;;;;;9.60;5.63;;;18.00;99.90;;;;;;5014997;28;20033;-68
2022/06/08 11:05:06;;;;;;;7.82;5.57;;;18.40;99.90;;;;;;5013285;28;20121;-69
2022/06/08 11:08:06;;;;;;;8.43;5.25;;;18.00;99.90;;;;;;5025166;28;20095;-68
2022/06/08 11:10:44;;;;;;;8.05;5.45;;;18.00;99.90;;;;;;5024526;28;20041;-69
2022/06/08 11:13:24;;;;;;;6.82;5.55;;;19.10;99.90;;;;;;5016580;28;20041;-69
2022/06/08 11:16:06;;;;;;;7.28;5.22;;;18.30;99.90;;;;;;5024613;28;20045;-69
2022/06/08 11:18:51;;;;;;;10.80;7.60;;;18.20;99.90;;;;;;5023797;28;20112;-68
2022/06/08 11:21:49;;;;;;;7.28;5.80;;;18.10;99.90;;;;;;5027611;28;20037;-69
2022/06/08 11:24:24;;;;;;;9.82;6.72;;;18.30;99.90;;;;;;5028803;28;20033;-69
2022/06/08 11:27:13;;;;;;;13.98;6.70;;;18.20;99.90;;;;;;5027874;28;20080;-68
2022/06/08 11:29:49;;;;;;;9.43;6.47;;;19.20;99.90;;;;;;5010120;28;20141;-70
2022/06/08 11:32:40;;;;;;;8.88;5.97;;;18.30;99.90;;;;;;5029662;28;20036;-69
2022/06/08 11:35:21;;;;;;;9.65;6.38;;;17.90;99.90;;;;;;5027331;28;20431;-69
2022/06/08 11:38:48;;;;;;;8.45;6.13;;;17.90;99.90;;;;;;5010126;28;20045;-70
2022/06/08 11:41:20;;;;;;;10.50;5.97;;;18.30;99.90;;;;;;4935573;28;20054;-68
2022/06/08 11:43:48;;;;;;;10.95;7.28;;;18.30;99.90;;;;;;4947310;28;20054;-70
2022/06/08 11:46:23;;;;;;;11.20;7.32;;;18.40;99.90;;;;;;5004776;28;20041;-68
2022/06/08 11:48:49;;;;;;;10.90;6.50;;;19.40;99.90;;;;;;4997014;28;20138;-67
2022/06/08 11:51:28;;;;;;;9.35;7.50;;;19.00;99.90;;;;;;5013057;28;20096;-69
2022/06/08 11:53:55;;;;;;;8.65;6.63;;;19.10;99.90;;;;;;5013076;28;20041;-69
2022/06/08 11:56:33;;;;;;;9.00;7.20;;;19.80;99.90;;;;;;5012819;28;20045;-69
2022/06/08 11:59:03;;;;;;;12.07;7.38;;;21.20;99.90;;;;;;5028891;28;21659;-69
2022/06/08 12:01:42;;;;;;;9.50;6.80;;;20.00;99.90;;;;;;5013077;28;20060;-70
2022/06/08 12:04:13;;;;;;;8.18;6.43;;;19.80;99.90;;;;;;5012371;28;20045;-69
2022/06/08 12:06:40;;;;;;;15.85;7.20;;;19.90;99.90;;;;;;5032362;28;20044;-70
2022/06/08 12:09:05;;;;;;;11.73;7.07;;;20.00;99.90;;;;;;5033407;28;20041;-70
2022/06/08 12:11:33;;;;;;;8.15;5.70;;;20.00;99.90;;;;;;5032159;28;20041;-69
2022/06/08 12:14:24;;;;;;;9.25;5.53;;;20.20;99.90;;;;;;5033782;28;20050;-70
2022/06/08 12:17:09;;;;;;;6.60;5.57;;;20.10;99.90;;;;;;5015698;28;20164;-70
2022/06/08 12:19:56;;;;;;;10.40;6.43;;;20.20;99.90;;;;;;5031783;28;20041;-69
2022/06/08 12:22:25;;;;;;;11.65;6.15;;;20.00;99.90;;;;;;4999561;28;20264;-69
2022/06/08 12:25:09;;;;;;;8.25;6.15;;;20.10;99.90;;;;;;5033465;28;20045;-69
2022/06/08 12:27:51;;;;;;;12.85;6.38;;;19.90;99.90;;;;;;5030804;28;20507;-69
2022/06/08 12:30:29;;;;;;;11.10;5.90;;;19.80;99.90;;;;;;5011745;28;20046;-69
2022/06/08 12:33:13;;;;;;;8.60;5.80;;;19.80;99.90;;;;;;5016976;28;20507;-69
2022/06/08 12:35:51;;;;;;;8.60;6.55;;;19.70;99.90;;;;;;5028798;28;20064;-70
2022/06/08 12:38:26;;;;;;;11.80;7.22;;;21.10;99.90;;;;;;5012407;28;20128;-71
2022/06/08 12:41:11;;;;;;;12.15;6.05;;;19.50;99.90;;;;;;4998121;28;20037;-69
2022/06/08 12:43:46;;;;;;;10.25;5.30;;;19.60;99.90;;;;;;5033043;28;20034;-70
2022/06/08 12:46:13;;;;;;;9.68;5.65;;;20.60;99.90;;;;;;5032847;28;20038;-69
2022/06/08 12:48:55;;;;;;;10.13;6.35;;;19.80;99.90;;;;;;5031467;28;20095;-70
2022/06/08 12:51:40;;;;;;;12.67;9.20;;;18.70;99.90;;;;;;5032393;28;20037;-69
2022/06/08 12:54:18;;;;;;;11.93;9.88;;;18.40;99.90;;;;;;5015138;28;20099;-69
2022/06/08 12:56:46;;;;;;;19.98;13.88;;;18.10;99.90;;;;;;5031826;28;20081;-70
2022/06/08 12:59:14;;;;;;;20.00;16.00;;;19.10;99.90;;;;;;5014232;28;20045;-70
2022/06/08 13:01:44;;;;;;;18.58;16.70;;;17.60;99.90;;;;;;5014396;28;20042;-68
2022/06/08 13:04:12;;;;;;;22.10;17.52;;;17.80;99.90;;;;;;5032417;28;20057;-68
2022/06/08 13:06:38;;;;;;;23.83;18.92;;;17.30;99.90;;;;;;5014853;28;20034;-69
2022/06/08 13:09:04;;;;;;;22.15;18.27;;;18.80;99.90;;;;;;5031835;28;20037;-69
2022/06/08 13:11:30;;;;;;;22.95;18.60;;;18.50;99.90;;;;;;5032307;28;20097;-68
2022/06/08 13:13:57;;;;;;;22.83;20.38;;;19.30;99.90;;;;;;5032564;28;20088;-69
2022/06/08 13:16:29;;;;;;;24.23;20.13;;;17.60;99.90;;;;;;5015196;28;20400;-69
2022/06/08 13:18:56;;;;;;;25.90;21.23;;;17.50;99.90;;;;;;5014500;28;20052;-68
2022/06/08 13:21:23;;;;;;;20.30;18.15;;;17.70;99.90;;;;;;5031989;28;20087;-69
2022/06/08 13:23:49;;;;;;;21.60;17.88;;;19.10;99.90;;;;;;5032138;28;20038;-68
2022/06/08 13:26:19;;;;;;;22.70;16.73;;;18.50;99.90;;;;;;5031112;28;20495;-69
2022/06/08 13:28:45;;;;;;;14.98;13.10;;;18.50;99.90;;;;;;5014511;28;20415;-69
2022/06/08 13:31:11;;;;;;;12.25;10.63;;;18.10;99.90;;;;;;5013819;28;20034;-69